createdAt,value
2017-12-20T00:00:03.360Z,-57
2017-12-20T00:01:03.389Z,-59
2017-12-20T00:02:03.052Z,-56
2017-12-20T00:03:02.997Z,-59
2017-12-20T00:04:02.980Z,-59
2017-12-20T00:05:03.164Z,-59
2017-12-20T00:06:03.628Z,-59
2017-12-20T00:07:03.018Z,-59
2017-12-20T00:08:03.199Z,-59
2017-12-20T00:09:03.045Z,-59
2017-12-20T00:10:02.834Z,-59
2017-12-20T00:11:02.854Z,-60
2017-12-20T00:12:03.409Z,-61
2017-12-20T00:13:03.164Z,-59
2017-12-20T00:14:03.170Z,-60
2017-12-20T00:15:02.768Z,-59
2017-12-20T00:16:02.785Z,-59
2017-12-20T00:17:02.948Z,-60
2017-12-20T00:18:02.787Z,-59
2017-12-20T00:19:03.153Z,-59
2017-12-20T00:20:02.783Z,-59
2017-12-20T00:21:03.009Z,-59
2017-12-20T00:22:03.234Z,-59
2017-12-20T00:23:02.983Z,-59
2017-12-20T00:24:03.359Z,-59
2017-12-20T00:25:03.044Z,-59
2017-12-20T00:26:02.986Z,-59
2017-12-20T00:27:02.916Z,-59
2017-12-20T00:28:03.204Z,-60
2017-12-20T00:29:02.795Z,-59
2017-12-20T00:30:03.208Z,-59
2017-12-20T00:31:03.517Z,-58
2017-12-20T00:32:03.200Z,-59
2017-12-20T00:33:03.141Z,-59
2017-12-20T00:34:03.170Z,-59
2017-12-20T00:35:03.378Z,-58
2017-12-20T00:36:03.014Z,-59
2017-12-20T00:37:03.335Z,-59
2017-12-20T00:38:03.508Z,-59
2017-12-20T00:39:03.371Z,-59
2017-12-20T00:40:03.187Z,-58
2017-12-20T00:41:02.997Z,-59
2017-12-20T00:42:03.023Z,-59
2017-12-20T00:43:02.989Z,-59
2017-12-20T00:44:03.230Z,-59
2017-12-20T00:45:03.199Z,-59
2017-12-20T00:46:03.134Z,-59
2017-12-20T00:47:03.386Z,-59
2017-12-20T00:48:02.985Z,-59
2017-12-20T00:49:03.155Z,-59
2017-12-20T00:50:03.439Z,-59
2017-12-20T00:51:02.792Z,-59
2017-12-20T00:52:03.423Z,-59
2017-12-20T00:53:03.176Z,-59
2017-12-20T00:54:03.557Z,-59
2017-12-20T00:55:02.975Z,-58
2017-12-20T00:56:03.405Z,-59
2017-12-20T00:57:03.336Z,-58
2017-12-20T00:58:03.082Z,-59
2017-12-20T00:59:03.018Z,-59
2017-12-20T01:00:03.266Z,-57
2017-12-20T01:01:02.987Z,-59
2017-12-20T01:02:03.183Z,-59
2017-12-20T01:03:03.370Z,-59
2017-12-20T01:04:03.217Z,-59
2017-12-20T01:05:03.521Z,-59
2017-12-20T01:06:03.346Z,-59
2017-12-20T01:07:03.043Z,-59
2017-12-20T01:08:03.029Z,-59
2017-12-20T01:09:03.039Z,-60
2017-12-20T01:10:03.024Z,-58
2017-12-20T01:11:02.846Z,-59
2017-12-20T01:12:03.014Z,-59
2017-12-20T01:13:03.085Z,-59
2017-12-20T01:14:03.399Z,-59
2017-12-20T01:15:03.343Z,-58
2017-12-20T01:16:03.178Z,-58
2017-12-20T01:17:02.978Z,-59
2017-12-20T01:18:02.813Z,-59
2017-12-20T01:19:03.120Z,-60
2017-12-20T01:20:03.002Z,-60
2017-12-20T01:21:02.834Z,-59
2017-12-20T01:22:02.613Z,-59
2017-12-20T01:23:03.001Z,-59
2017-12-20T01:24:03.408Z,-59
2017-12-20T01:25:03.044Z,-60
2017-12-20T01:26:03.144Z,-59
2017-12-20T01:27:03.002Z,-59
2017-12-20T01:28:03.059Z,-59
2017-12-20T01:29:03.090Z,-57
2017-12-20T01:30:02.850Z,-59
2017-12-20T01:31:03.132Z,-59
2017-12-20T01:32:03.199Z,-59
2017-12-20T01:33:03.191Z,-59
2017-12-20T01:34:03.396Z,-59
2017-12-20T01:35:03.393Z,-59
2017-12-20T01:36:03.174Z,-59
2017-12-20T01:37:03.004Z,-59
2017-12-20T01:38:03.240Z,-61
2017-12-20T01:39:02.811Z,-59
2017-12-20T01:40:03.204Z,-60
2017-12-20T01:41:03.034Z,-60
2017-12-20T01:42:03.372Z,-59
2017-12-20T01:43:03.660Z,-59
2017-12-20T01:44:03.091Z,-59
2017-12-20T01:45:02.995Z,-59
2017-12-20T01:46:03.382Z,-60
2017-12-20T01:47:03.209Z,-59
2017-12-20T01:48:02.835Z,-59
2017-12-20T01:49:03.218Z,-58
2017-12-20T01:50:03.031Z,-58
2017-12-20T01:51:03.222Z,-58
2017-12-20T01:52:03.373Z,-58
2017-12-20T01:53:02.981Z,-58
2017-12-20T01:54:02.857Z,-58
2017-12-20T01:55:02.982Z,-58
2017-12-20T01:56:02.794Z,-58
2017-12-20T01:57:03.212Z,-58
2017-12-20T01:58:03.059Z,-60
2017-12-20T01:59:03.006Z,-59
2017-12-20T02:00:03.429Z,-60
2017-12-20T02:01:03.253Z,-59
2017-12-20T02:02:03.022Z,-59
2017-12-20T02:03:03.182Z,-59
2017-12-20T02:04:03.189Z,-59
2017-12-20T02:05:03.021Z,-59
2017-12-20T02:06:03.211Z,-59
2017-12-20T02:07:03.371Z,-60
2017-12-20T02:08:03.086Z,-57
2017-12-20T02:09:03.272Z,-59
2017-12-20T02:10:03.172Z,-59
2017-12-20T02:11:02.884Z,-59
2017-12-20T02:12:02.826Z,-59
2017-12-20T02:13:02.841Z,-58
2017-12-20T02:14:02.916Z,-59
2017-12-20T02:15:03.504Z,-59
2017-12-20T02:16:03.020Z,-59
2017-12-20T02:17:03.540Z,-60
2017-12-20T02:18:03.174Z,-61
2017-12-20T02:19:03.227Z,-59
2017-12-20T02:20:03.167Z,-59
2017-12-20T02:21:03.181Z,-59
2017-12-20T02:22:03.218Z,-58
2017-12-20T02:23:03.046Z,-59
2017-12-20T02:24:03.337Z,-59
2017-12-20T02:25:03.378Z,-59
2017-12-20T02:26:02.818Z,-58
2017-12-20T02:27:03.259Z,-59
2017-12-20T02:28:03.015Z,-59
2017-12-20T02:29:03.382Z,-59
2017-12-20T02:30:03.488Z,-59
2017-12-20T02:31:03.016Z,-59
2017-12-20T02:32:03.292Z,-59
2017-12-20T02:33:03.406Z,-59
2017-12-20T02:34:03.443Z,-59
2017-12-20T02:35:03.247Z,-59
2017-12-20T02:36:03.436Z,-59
2017-12-20T02:37:03.336Z,-61
2017-12-20T02:38:03.044Z,-59
2017-12-20T02:39:03.277Z,-59
2017-12-20T02:40:03.481Z,-59
2017-12-20T02:41:03.444Z,-58
2017-12-20T02:42:03.310Z,-59
2017-12-20T02:43:03.017Z,-59
2017-12-20T02:44:03.398Z,-59
2017-12-20T02:45:03.478Z,-59
2017-12-20T02:46:03.690Z,-59
2017-12-20T02:47:03.324Z,-59
2017-12-20T02:48:03.425Z,-59
2017-12-20T02:49:03.452Z,-59
2017-12-20T02:50:03.628Z,-59
2017-12-20T02:51:03.223Z,-59
2017-12-20T02:52:03.127Z,-59
2017-12-20T02:53:03.604Z,-59
2017-12-20T02:54:03.407Z,-59
2017-12-20T02:55:03.386Z,-59
2017-12-20T02:56:03.486Z,-60
2017-12-20T02:57:03.414Z,-57
2017-12-20T02:58:03.444Z,-59
2017-12-20T02:59:02.905Z,-59
2017-12-20T03:00:03.379Z,-59
2017-12-20T03:01:03.435Z,-59
2017-12-20T03:02:03.013Z,-58
2017-12-20T03:03:03.378Z,-59
2017-12-20T03:04:03.099Z,-59
2017-12-20T03:05:03.002Z,-59
2017-12-20T03:06:03.237Z,-59
2017-12-20T03:07:03.018Z,-59
2017-12-20T03:08:02.989Z,-59
2017-12-20T03:09:03.348Z,-59
2017-12-20T03:10:03.045Z,-59
2017-12-20T03:11:02.624Z,-59
2017-12-20T03:12:03.461Z,-59
2017-12-20T03:13:03.234Z,-59
2017-12-20T03:14:03.447Z,-59
2017-12-20T03:15:03.388Z,-59
2017-12-20T03:16:03.094Z,-61
2017-12-20T03:17:03.499Z,-59
2017-12-20T03:18:03.032Z,-59
2017-12-20T03:19:03.083Z,-59
2017-12-20T03:20:03.048Z,-59
2017-12-20T03:21:03.234Z,-59
2017-12-20T03:22:03.416Z,-59
2017-12-20T03:23:03.070Z,-59
2017-12-20T03:24:03.078Z,-59
2017-12-20T03:25:02.874Z,-59
2017-12-20T03:26:03.100Z,-59
2017-12-20T03:27:03.314Z,-59
2017-12-20T03:28:03.237Z,-59
2017-12-20T03:29:03.009Z,-59
2017-12-20T03:30:03.339Z,-59
2017-12-20T03:31:03.509Z,-59
2017-12-20T03:32:03.268Z,-59
2017-12-20T03:33:03.447Z,-59
2017-12-20T03:34:03.243Z,-59
2017-12-20T03:35:03.107Z,-60
2017-12-20T03:36:02.831Z,-60
2017-12-20T03:37:03.292Z,-60
2017-12-20T03:38:03.411Z,-60
2017-12-20T03:39:03.013Z,-60
2017-12-20T03:40:03.260Z,-60
2017-12-20T03:41:03.200Z,-60
2017-12-20T03:42:03.090Z,-60
2017-12-20T03:43:03.301Z,-60
2017-12-20T03:44:02.852Z,-60
2017-12-20T03:45:03.217Z,-60
2017-12-20T03:46:03.438Z,-60
2017-12-20T03:47:03.323Z,-60
2017-12-20T03:48:03.176Z,-60
2017-12-20T03:49:02.813Z,-60
2017-12-20T03:50:03.199Z,-60
2017-12-20T03:51:03.247Z,-60
2017-12-20T03:52:03.232Z,-60
2017-12-20T03:53:03.242Z,-60
2017-12-20T03:54:03.164Z,-60
2017-12-20T03:55:02.870Z,-60
2017-12-20T03:56:03.221Z,-59
2017-12-20T03:57:03.439Z,-59
2017-12-20T03:58:03.089Z,-59
2017-12-20T03:59:03.019Z,-59
2017-12-20T04:00:03.070Z,-59
2017-12-20T04:01:03.342Z,-59
2017-12-20T04:02:03.449Z,-59
2017-12-20T04:03:03.524Z,-59
2017-12-20T04:04:03.213Z,-59
2017-12-20T04:05:03.124Z,-58
2017-12-20T04:06:03.488Z,-58
2017-12-20T04:07:03.057Z,-58
2017-12-20T04:08:03.464Z,-58
2017-12-20T04:09:02.828Z,-58
2017-12-20T04:10:02.856Z,-58
2017-12-20T04:11:02.902Z,-58
2017-12-20T04:12:02.852Z,-58
2017-12-20T04:13:03.295Z,-58
2017-12-20T04:14:03.088Z,-59
2017-12-20T04:15:03.636Z,-59
2017-12-20T04:16:02.857Z,-59
2017-12-20T04:17:03.477Z,-59
2017-12-20T04:18:03.300Z,-59
2017-12-20T04:19:03.085Z,-59
2017-12-20T04:20:03.265Z,-59
2017-12-20T04:21:02.934Z,-59
2017-12-20T04:22:02.842Z,-59
2017-12-20T04:23:02.905Z,-58
2017-12-20T04:24:02.878Z,-58
2017-12-20T04:25:03.220Z,-59
2017-12-20T04:26:03.559Z,-59
2017-12-20T04:27:02.990Z,-59
2017-12-20T04:28:03.256Z,-59
2017-12-20T04:29:03.042Z,-59
2017-12-20T04:30:02.905Z,-59
2017-12-20T04:31:03.185Z,-59
2017-12-20T04:32:02.866Z,-59
2017-12-20T04:33:03.221Z,-58
2017-12-20T04:34:03.055Z,-60
2017-12-20T04:35:03.375Z,-59
2017-12-20T04:36:03.097Z,-59
2017-12-20T04:37:03.018Z,-59
2017-12-20T04:38:02.844Z,-59
2017-12-20T04:39:02.689Z,-59
2017-12-20T04:40:02.894Z,-59
2017-12-20T04:41:03.147Z,-59
2017-12-20T04:42:03.223Z,-58
2017-12-20T04:43:03.231Z,-59
2017-12-20T04:44:03.213Z,-59
2017-12-20T04:45:03.271Z,-59
2017-12-20T04:46:03.580Z,-59
2017-12-20T04:47:03.259Z,-59
2017-12-20T04:48:02.828Z,-59
2017-12-20T04:49:03.265Z,-59
2017-12-20T04:50:03.123Z,-59
2017-12-20T04:51:03.319Z,-59
2017-12-20T04:52:03.270Z,-59
2017-12-20T04:53:03.108Z,-58
2017-12-20T04:54:03.066Z,-60
2017-12-20T04:55:02.691Z,-59
2017-12-20T04:56:03.439Z,-59
2017-12-20T04:57:02.901Z,-59
2017-12-20T04:58:02.885Z,-59
2017-12-20T04:59:02.855Z,-59
2017-12-20T05:00:03.241Z,-59
2017-12-20T05:01:03.490Z,-59
2017-12-20T05:02:03.058Z,-59
2017-12-20T05:03:02.917Z,-60
2017-12-20T05:04:03.402Z,-59
2017-12-20T05:05:03.210Z,-59
2017-12-20T05:06:03.189Z,-59
2017-12-20T05:07:03.085Z,-59
2017-12-20T05:08:03.167Z,-59
2017-12-20T05:09:03.032Z,-59
2017-12-20T05:10:03.498Z,-59
2017-12-20T05:11:03.101Z,-59
2017-12-20T05:12:03.071Z,-59
2017-12-20T05:13:03.379Z,-59
2017-12-20T05:14:02.891Z,-59
2017-12-20T05:15:03.040Z,-59
2017-12-20T05:16:02.945Z,-59
2017-12-20T05:17:02.902Z,-58
2017-12-20T05:18:02.911Z,-59
2017-12-20T05:19:03.338Z,-59
2017-12-20T05:20:03.376Z,-59
2017-12-20T05:21:03.147Z,-58
2017-12-20T05:22:03.104Z,-59
2017-12-20T05:23:03.039Z,-59
2017-12-20T05:24:02.842Z,-59
2017-12-20T05:25:03.034Z,-59
2017-12-20T05:26:03.089Z,-59
2017-12-20T05:27:03.058Z,-59
2017-12-20T05:28:03.068Z,-59
2017-12-20T05:29:03.040Z,-59
2017-12-20T05:30:03.118Z,-60
2017-12-20T05:31:03.098Z,-58
2017-12-20T05:32:03.095Z,-59
2017-12-20T05:33:03.631Z,-59
2017-12-20T05:34:02.927Z,-59
2017-12-20T05:35:03.544Z,-59
2017-12-20T05:36:03.230Z,-59
2017-12-20T05:37:03.052Z,-59
2017-12-20T05:38:03.681Z,-59
2017-12-20T05:39:03.263Z,-59
2017-12-20T05:40:03.108Z,-59
2017-12-20T05:41:03.270Z,-59
2017-12-20T05:42:03.626Z,-61
2017-12-20T05:43:03.124Z,-60
2017-12-20T05:44:03.675Z,-60
2017-12-20T05:45:02.806Z,-60
2017-12-20T05:46:03.293Z,-61
2017-12-20T05:47:02.886Z,-60
2017-12-20T05:48:03.089Z,-60
2017-12-20T05:49:03.504Z,-60
2017-12-20T05:50:02.883Z,-60
2017-12-20T05:51:03.110Z,-60
2017-12-20T05:52:03.191Z,-59
2017-12-20T05:53:03.639Z,-59
2017-12-20T05:54:03.300Z,-59
2017-12-20T05:55:03.094Z,-59
2017-12-20T05:56:02.897Z,-59
2017-12-20T05:57:03.282Z,-58
2017-12-20T05:58:02.879Z,-59
2017-12-20T05:59:02.969Z,-59
2017-12-20T06:00:03.294Z,-59
2017-12-20T06:01:03.517Z,-59
2017-12-20T06:02:02.957Z,-59
2017-12-20T06:03:03.068Z,-60
2017-12-20T06:04:02.879Z,-59
2017-12-20T06:05:03.256Z,-58
2017-12-20T06:06:03.088Z,-59
2017-12-20T06:07:03.475Z,-58
2017-12-20T06:08:03.385Z,-59
2017-12-20T06:09:03.131Z,-58
2017-12-20T06:10:03.311Z,-58
2017-12-20T06:11:03.090Z,-60
2017-12-20T06:12:03.091Z,-59
2017-12-20T06:13:03.078Z,-58
2017-12-20T06:14:03.256Z,-58
2017-12-20T06:15:03.403Z,-59
2017-12-20T06:16:03.087Z,-59
2017-12-20T06:17:03.348Z,-59
2017-12-20T06:18:03.318Z,-59
2017-12-20T06:19:03.314Z,-59
2017-12-20T06:20:03.126Z,-59
2017-12-20T06:21:03.697Z,-57
2017-12-20T06:22:03.074Z,-58
2017-12-20T06:23:03.195Z,-58
2017-12-20T06:24:03.331Z,-59
2017-12-20T06:25:03.141Z,-59
2017-12-20T06:26:03.115Z,-59
2017-12-20T06:27:03.288Z,-59
2017-12-20T06:28:03.281Z,-59
2017-12-20T06:29:03.134Z,-59
2017-12-20T06:30:04.715Z,-59
2017-12-20T06:31:03.119Z,-59
2017-12-20T06:32:02.911Z,-59
2017-12-20T06:33:03.480Z,-59
2017-12-20T06:34:02.918Z,-58
2017-12-20T06:35:03.307Z,-58
2017-12-20T06:36:03.276Z,-59
2017-12-20T06:37:03.484Z,-58
2017-12-20T06:38:02.739Z,-59
2017-12-20T06:39:03.422Z,-59
2017-12-20T06:40:03.490Z,-61
2017-12-20T06:41:02.869Z,-58
2017-12-20T06:42:03.085Z,-60
2017-12-20T06:43:03.070Z,-59
2017-12-20T06:44:03.117Z,-59
2017-12-20T06:45:02.713Z,-58
2017-12-20T06:46:03.456Z,-59
2017-12-20T06:47:03.396Z,-58
2017-12-20T06:48:03.063Z,-59
2017-12-20T06:49:03.103Z,-60
2017-12-20T06:50:02.944Z,-58
2017-12-20T06:51:03.255Z,-59
2017-12-20T06:52:03.078Z,-61
2017-12-20T06:53:03.103Z,-60
2017-12-20T06:54:03.248Z,-59
2017-12-20T06:55:03.443Z,-59
2017-12-20T06:56:02.884Z,-59
2017-12-20T06:57:03.093Z,-59
2017-12-20T06:58:03.081Z,-59
2017-12-20T06:59:03.513Z,-59
2017-12-20T07:00:03.497Z,-60
2017-12-20T07:01:03.253Z,-59
2017-12-20T07:02:02.968Z,-59
2017-12-20T07:03:03.302Z,-59
2017-12-20T07:04:03.494Z,-59
2017-12-20T07:05:03.102Z,-59
2017-12-20T07:06:03.125Z,-59
2017-12-20T07:07:03.340Z,-59
2017-12-20T07:08:03.358Z,-59
2017-12-20T07:09:03.609Z,-59
2017-12-20T07:10:03.181Z,-61
2017-12-20T07:11:03.152Z,-58
2017-12-20T07:12:02.941Z,-59
2017-12-20T07:13:02.737Z,-59
2017-12-20T07:14:03.473Z,-59
2017-12-20T07:15:03.850Z,-59
2017-12-20T07:16:02.918Z,-59
2017-12-20T07:17:03.340Z,-59
2017-12-20T07:18:03.332Z,-59
2017-12-20T07:19:03.134Z,-59
2017-12-20T07:20:03.580Z,-61
2017-12-20T07:21:03.111Z,-59
2017-12-20T07:22:03.513Z,-59
2017-12-20T07:23:03.301Z,-59
2017-12-20T07:24:03.119Z,-59
2017-12-20T07:25:03.214Z,-59
2017-12-20T07:26:03.144Z,-59
2017-12-20T07:27:03.120Z,-60
2017-12-20T07:28:03.126Z,-60
2017-12-20T07:29:03.719Z,-59
2017-12-20T07:30:03.400Z,-60
2017-12-20T07:31:03.345Z,-61
2017-12-20T07:32:03.205Z,-60
2017-12-20T07:33:02.960Z,-60
2017-12-20T07:34:03.115Z,-61
2017-12-20T07:35:03.498Z,-61
2017-12-20T07:36:03.252Z,-61
2017-12-20T07:37:03.153Z,-61
2017-12-20T07:38:03.346Z,-60
2017-12-20T07:39:03.393Z,-61
2017-12-20T07:40:03.121Z,-59
2017-12-20T07:41:03.116Z,-60
2017-12-20T07:42:03.096Z,-59
2017-12-20T07:43:02.949Z,-54
2017-12-20T07:44:03.278Z,-55
2017-12-20T07:45:03.343Z,-55
2017-12-20T07:46:03.120Z,-58
2017-12-20T07:47:03.112Z,-49
2017-12-20T07:48:03.203Z,-53
2017-12-20T07:49:03.324Z,-51
2017-12-20T07:50:03.309Z,-55
2017-12-20T07:51:03.150Z,-50
2017-12-20T07:52:02.775Z,-48
2017-12-20T07:53:03.024Z,-50
2017-12-20T07:54:03.153Z,-56
2017-12-20T07:55:03.048Z,-51
2017-12-20T07:56:03.582Z,-60
2017-12-20T07:57:02.949Z,-51
2017-12-20T07:58:03.262Z,-56
2017-12-20T07:59:03.311Z,-57
2017-12-20T08:00:03.579Z,-60
2017-12-20T08:01:03.554Z,-61
2017-12-20T08:02:03.169Z,-52
2017-12-20T08:03:03.172Z,-60
2017-12-20T08:04:03.202Z,-57
2017-12-20T08:05:03.139Z,-51
2017-12-20T08:06:03.360Z,-60
2017-12-20T08:07:03.214Z,-51
2017-12-20T08:08:03.344Z,-50
2017-12-20T08:09:03.444Z,-51
2017-12-20T08:10:03.512Z,-61
2017-12-20T08:11:03.323Z,-59
2017-12-20T08:12:03.380Z,-52
2017-12-20T08:13:03.123Z,-55
2017-12-20T08:14:03.162Z,-52
2017-12-20T08:15:03.550Z,-50
2017-12-20T08:16:03.523Z,-51
2017-12-20T08:17:03.161Z,-55
2017-12-20T08:18:03.743Z,-51
2017-12-20T08:19:03.651Z,-61
2017-12-20T08:20:03.229Z,-50
2017-12-20T08:21:03.150Z,-52
2017-12-20T08:22:03.428Z,-52
2017-12-20T08:23:03.375Z,-50
2017-12-20T08:24:03.302Z,-50
2017-12-20T08:25:03.165Z,-51
2017-12-20T08:26:03.163Z,-56
2017-12-20T08:27:03.127Z,-55
2017-12-20T08:28:02.971Z,-50
2017-12-20T08:29:02.786Z,-61
2017-12-20T08:30:02.972Z,-54
2017-12-20T08:31:03.358Z,-56
2017-12-20T08:32:02.987Z,-53
2017-12-20T08:33:03.413Z,-50
2017-12-20T08:34:03.198Z,-56
2017-12-20T08:35:03.360Z,-59
2017-12-20T08:36:03.572Z,-50
2017-12-20T08:37:03.395Z,-50
2017-12-20T08:38:03.575Z,-59
2017-12-20T08:39:03.064Z,-51
2017-12-20T08:40:03.434Z,-54
2017-12-20T08:41:03.512Z,-56
2017-12-20T08:42:03.184Z,-57
2017-12-20T08:43:03.324Z,-55
2017-12-20T08:44:02.949Z,-55
2017-12-20T08:45:03.643Z,-53
2017-12-20T08:46:03.117Z,-51
2017-12-20T08:47:03.140Z,-55
2017-12-20T08:48:03.328Z,-54
2017-12-20T08:49:02.958Z,-53
2017-12-20T08:50:03.515Z,-54
2017-12-20T08:51:03.585Z,-52
2017-12-20T08:52:03.130Z,-55
2017-12-20T08:53:24.018Z,31
2017-12-20T08:54:03.342Z,-58
2017-12-20T08:55:03.339Z,-56
2017-12-20T08:56:02.988Z,-55
2017-12-20T08:57:03.582Z,-55
2017-12-20T08:58:03.209Z,-57
2017-12-20T08:59:03.354Z,-50
2017-12-20T09:00:03.730Z,-56
2017-12-20T09:01:03.536Z,-50
2017-12-20T09:02:03.676Z,-56
2017-12-20T09:03:03.203Z,-49
2017-12-20T09:04:03.318Z,-52
2017-12-20T09:05:03.523Z,-54
2017-12-20T09:06:03.341Z,-49
2017-12-20T09:07:03.590Z,-54
2017-12-20T09:08:03.394Z,-54
2017-12-20T09:09:03.424Z,-49
2017-12-20T09:10:03.358Z,-56
2017-12-20T09:11:03.332Z,-57
2017-12-20T09:12:03.198Z,-55
2017-12-20T09:13:03.162Z,-58
2017-12-20T09:14:03.368Z,-53
2017-12-20T09:15:03.375Z,-53
2017-12-20T09:16:03.122Z,-60
2017-12-20T09:17:03.580Z,-52
2017-12-20T09:18:03.322Z,-57
2017-12-20T09:19:03.180Z,-53
2017-12-20T09:20:03.132Z,-56
2017-12-20T09:21:02.970Z,-51
2017-12-20T09:22:03.383Z,-59
2017-12-20T09:23:03.120Z,-59
2017-12-20T09:24:03.349Z,-59
2017-12-20T09:25:03.414Z,-56
2017-12-20T09:26:02.988Z,-56
2017-12-20T09:27:03.560Z,-51
2017-12-20T09:28:03.170Z,-52
2017-12-20T09:29:03.417Z,-57
2017-12-20T09:30:03.151Z,-53
2017-12-20T09:31:03.551Z,-54
2017-12-20T09:32:03.322Z,-54
2017-12-20T09:33:03.789Z,-53
2017-12-20T09:34:03.386Z,-54
2017-12-20T09:35:03.407Z,-54
2017-12-20T09:36:03.569Z,-60
2017-12-20T09:37:03.367Z,-54
2017-12-20T09:38:03.673Z,-54
2017-12-20T09:39:03.510Z,-57
2017-12-20T09:40:03.585Z,-54
2017-12-20T09:41:03.188Z,-57
2017-12-20T09:42:02.921Z,-56
2017-12-20T09:43:03.582Z,-48
2017-12-20T09:44:03.181Z,-50
2017-12-20T09:45:03.631Z,-56
2017-12-20T09:46:03.175Z,-48
2017-12-20T09:47:03.382Z,-55
2017-12-20T09:48:03.559Z,-49
2017-12-20T09:49:03.124Z,-60
2017-12-20T09:50:03.268Z,-57
2017-12-20T09:51:03.537Z,-55
2017-12-20T09:52:03.773Z,-54
2017-12-20T09:53:03.368Z,-55
2017-12-20T09:54:03.361Z,-56
2017-12-20T09:55:03.508Z,-55
2017-12-20T09:56:03.176Z,-54
2017-12-20T09:57:03.563Z,-55
2017-12-20T09:58:03.345Z,-51
2017-12-20T09:59:03.616Z,-52
2017-12-20T10:00:03.531Z,-54
2017-12-20T10:01:03.540Z,-58
2017-12-20T10:02:03.213Z,-56
2017-12-20T10:03:03.217Z,-56
2017-12-20T10:04:03.414Z,-56
2017-12-20T10:05:03.375Z,-56
2017-12-20T10:06:03.597Z,-56
2017-12-20T10:07:03.204Z,-58
2017-12-20T10:08:03.385Z,-57
2017-12-20T10:09:03.385Z,-57
2017-12-20T10:10:03.817Z,-55
2017-12-20T10:11:03.224Z,-54
2017-12-20T10:12:03.426Z,-57
2017-12-20T10:13:03.387Z,-54
2017-12-20T10:14:03.221Z,-55
2017-12-20T10:15:03.442Z,-63
2017-12-20T10:16:03.907Z,-55
2017-12-20T10:17:03.743Z,-56
2017-12-20T10:18:03.368Z,-60
2017-12-20T10:19:02.831Z,-53
2017-12-20T10:20:03.400Z,-56
2017-12-20T10:21:03.094Z,-53
2017-12-20T10:22:03.393Z,-58
2017-12-20T10:23:03.460Z,-54
2017-12-20T10:24:03.381Z,-55
2017-12-20T10:25:03.520Z,-53
2017-12-20T10:26:03.625Z,-62
2017-12-20T10:27:03.217Z,-61
2017-12-20T10:28:03.410Z,-55
2017-12-20T10:29:03.395Z,-53
2017-12-20T10:30:03.609Z,-53
2017-12-20T10:31:03.132Z,-54
2017-12-20T10:32:02.885Z,-62
2017-12-20T10:33:03.578Z,-61
2017-12-20T10:34:02.970Z,-63
2017-12-20T10:35:02.977Z,-53
2017-12-20T10:36:03.057Z,-55
2017-12-20T10:37:02.976Z,-55
2017-12-20T10:38:02.972Z,-63
2017-12-20T10:39:03.013Z,-57
2017-12-20T10:40:03.018Z,-49
2017-12-20T10:41:03.049Z,-58
2017-12-20T10:42:03.009Z,-59
2017-12-20T10:43:02.982Z,-59
2017-12-20T10:44:02.825Z,-52
2017-12-20T10:45:02.792Z,-55
2017-12-20T10:46:03.231Z,-52
2017-12-20T10:47:03.708Z,-56
2017-12-20T10:48:03.202Z,-52
2017-12-20T10:49:03.035Z,-50
2017-12-20T10:50:03.004Z,-51
2017-12-20T10:51:29.532Z,-42
2017-12-20T10:51:54.359Z,-48
2017-12-20T10:52:52.403Z,-48
2017-12-20T10:53:52.390Z,-48
2017-12-20T10:54:52.339Z,-50
2017-12-20T10:55:52.371Z,-47
2017-12-20T10:56:52.369Z,-48
2017-12-20T10:57:52.962Z,-48
2017-12-20T10:58:52.326Z,-48
2017-12-20T10:59:52.577Z,-48
2017-12-20T11:00:52.739Z,-48
2017-12-20T11:01:52.538Z,-48
2017-12-20T11:02:52.761Z,-51
2017-12-20T11:03:27.143Z,-47
2017-12-20T11:04:25.890Z,-49
2017-12-20T11:05:25.691Z,-49
2017-12-20T11:06:25.699Z,-46
2017-12-20T11:07:25.651Z,-45
2017-12-20T11:08:25.649Z,-49
2017-12-20T11:09:25.443Z,-48
2017-12-20T11:10:25.907Z,-47
2017-12-20T11:11:26.100Z,-47
2017-12-20T11:12:25.662Z,-49
2017-12-20T11:13:25.701Z,-47
2017-12-20T11:14:25.680Z,-46
2017-12-20T11:15:25.912Z,-47
2017-12-20T11:16:25.659Z,-50
2017-12-20T11:17:25.649Z,-50
2017-12-20T11:18:25.666Z,-47
2017-12-20T11:19:25.472Z,-46
2017-12-20T11:20:25.875Z,-48
2017-12-20T11:21:25.848Z,-46
2017-12-20T11:22:25.486Z,-47
2017-12-20T11:23:25.658Z,-45
2017-12-20T11:24:25.471Z,-49
2017-12-20T11:25:25.484Z,-46
2017-12-20T11:26:25.874Z,-50
2017-12-20T11:27:25.677Z,-49
2017-12-20T11:28:25.692Z,-49
2017-12-20T11:29:25.698Z,-50
2017-12-20T11:30:26.114Z,-47
2017-12-20T11:31:25.741Z,-47
2017-12-20T11:32:25.637Z,-50
2017-12-20T11:33:25.643Z,-49
2017-12-20T11:34:25.458Z,-50
2017-12-20T11:35:25.937Z,-49
2017-12-20T11:36:25.487Z,-45
2017-12-20T11:37:25.910Z,-48
2017-12-20T11:38:25.679Z,-46
2017-12-20T11:39:25.516Z,-45
2017-12-20T11:40:25.485Z,-46
2017-12-20T11:41:25.700Z,-47
2017-12-20T11:42:25.663Z,-47
2017-12-20T11:43:25.908Z,-46
2017-12-20T11:44:26.038Z,-50
2017-12-20T11:45:25.682Z,-46
2017-12-20T11:46:25.715Z,-48
2017-12-20T11:47:25.688Z,-49
2017-12-20T11:48:26.278Z,-49
2017-12-20T11:49:25.540Z,-46
2017-12-20T11:50:25.658Z,-47
2017-12-20T11:51:26.270Z,-45
2017-12-20T11:52:25.907Z,-45
2017-12-20T11:53:25.894Z,-50
2017-12-20T11:54:25.913Z,-46
2017-12-20T11:55:25.767Z,-49
2017-12-20T11:56:25.904Z,-49
2017-12-20T11:57:26.360Z,-49
2017-12-20T11:58:25.694Z,-49
2017-12-20T11:59:26.081Z,-46
2017-12-20T12:00:25.921Z,-47
2017-12-20T12:01:25.928Z,-48
2017-12-20T12:02:25.940Z,-46
2017-12-20T12:03:26.162Z,-47
2017-12-20T12:04:25.746Z,-47
2017-12-20T12:05:26.078Z,-49
2017-12-20T12:06:25.977Z,-45
2017-12-20T12:07:25.929Z,-46
2017-12-20T12:08:26.130Z,-45
2017-12-20T12:09:26.481Z,-47
2017-12-20T12:10:26.117Z,-47
2017-12-20T12:11:25.950Z,-46
2017-12-20T12:12:25.528Z,-46
2017-12-20T12:13:25.735Z,-47
2017-12-20T12:14:25.962Z,-47
2017-12-20T12:15:26.354Z,-50
2017-12-20T12:16:26.457Z,-48
2017-12-20T12:17:26.278Z,-49
2017-12-20T12:18:26.084Z,-46
2017-12-20T12:19:26.562Z,-50
2017-12-20T12:20:25.750Z,-49
2017-12-20T12:21:26.122Z,-46
2017-12-20T12:22:25.803Z,-49
2017-12-20T12:23:25.918Z,-50
2017-12-20T12:24:26.119Z,-50
2017-12-20T12:25:25.914Z,-49
2017-12-20T12:26:25.749Z,-48
2017-12-20T12:27:26.367Z,-50
2017-12-20T12:28:26.116Z,-50
2017-12-20T12:29:25.908Z,-50
2017-12-20T12:30:25.883Z,-48
2017-12-20T12:31:25.551Z,-47
2017-12-20T12:32:25.569Z,-48
2017-12-20T12:33:26.303Z,-46
2017-12-20T12:34:26.288Z,-47
2017-12-20T12:35:25.697Z,-47
2017-12-20T12:36:26.079Z,-50
2017-12-20T12:37:25.931Z,-50
2017-12-20T12:38:25.752Z,-46
2017-12-20T12:39:26.118Z,-50
2017-12-20T12:40:26.108Z,-46
2017-12-20T12:41:25.672Z,-48
2017-12-20T12:42:25.935Z,-47
2017-12-20T12:43:25.736Z,-50
2017-12-20T12:44:25.903Z,-43
2017-12-20T12:45:25.927Z,-46
2017-12-20T12:46:25.912Z,-49
2017-12-20T12:47:26.143Z,-47
2017-12-20T12:48:25.920Z,-49
2017-12-20T12:49:26.086Z,-45
2017-12-20T12:50:26.555Z,-46
2017-12-20T12:51:25.926Z,-45
2017-12-20T12:52:25.761Z,-47
2017-12-20T12:53:25.747Z,-49
2017-12-20T12:54:25.728Z,-48
2017-12-20T12:55:25.773Z,-48
2017-12-20T12:56:25.697Z,-48
2017-12-20T12:57:25.531Z,-47
2017-12-20T12:58:25.740Z,-46
2017-12-20T12:59:25.739Z,-50
2017-12-20T13:00:25.723Z,-47
2017-12-20T13:01:25.927Z,-49
2017-12-20T13:02:25.740Z,-48
2017-12-20T13:03:25.884Z,-49
2017-12-20T13:04:25.503Z,-49
2017-12-20T13:05:26.006Z,-47
2017-12-20T13:06:26.180Z,-50
2017-12-20T13:07:26.097Z,-51
2017-12-20T13:08:26.025Z,-47
2017-12-20T13:09:25.744Z,-49
2017-12-20T13:10:25.994Z,-49
2017-12-20T13:11:25.563Z,-46
2017-12-20T13:12:25.978Z,-49
2017-12-20T13:13:25.987Z,-47
2017-12-20T13:14:25.676Z,-50
2017-12-20T13:15:25.909Z,-49
2017-12-20T13:16:25.542Z,-50
2017-12-20T13:17:25.920Z,-48
2017-12-20T13:18:26.020Z,-48
2017-12-20T13:19:26.262Z,-46
2017-12-20T13:20:25.747Z,-50
2017-12-20T13:21:26.074Z,-48
2017-12-20T13:22:25.694Z,-48
2017-12-20T13:23:25.761Z,-50
2017-12-20T13:24:25.983Z,-46
2017-12-20T13:25:25.547Z,-47
2017-12-20T13:26:25.974Z,-46
2017-12-20T13:27:25.923Z,-46
2017-12-20T13:28:25.708Z,-50
2017-12-20T13:29:25.577Z,-46
2017-12-20T13:30:26.132Z,-50
2017-12-20T13:31:26.120Z,-46
2017-12-20T13:32:26.161Z,-46
2017-12-20T13:33:25.710Z,-50
2017-12-20T13:34:26.192Z,-50
2017-12-20T13:35:26.043Z,-45
2017-12-20T13:36:25.586Z,-47
2017-12-20T13:37:25.712Z,-46
2017-12-20T13:38:26.122Z,-47
2017-12-20T13:39:26.215Z,-45
2017-12-20T13:40:25.761Z,-48
2017-12-20T13:41:25.796Z,-48
2017-12-20T13:42:25.925Z,-45
2017-12-20T13:43:25.905Z,-49
2017-12-20T13:44:25.746Z,-49
2017-12-20T13:45:26.315Z,-49